Time,TemperatureF,DewpointF,PressureIn,WindDirection,WindDirectionDegrees,WindSpeedMPH,WindSpeedGustMPH,Humidity,HourlyPrecipIn,Conditions,Clouds,dailyrainin,SoftwareType,DateUTC
2013-03-13 00:02:00,49.0,24.0,30.26,ESE,111,7.0,8.0,37,0.00,,,-99.99,,2013-03-13 06:02:00,
2013-03-13 00:12:00,49.0,24.0,30.26,ESE,111,7.0,8.0,37,0.00,,,-99.99,,2013-03-13 06:12:00,
2013-03-13 00:23:00,48.0,24.0,30.26,ESE,122,5.0,8.0,38,0.00,,,-99.99,,2013-03-13 06:23:00,
2013-03-13 00:32:00,48.0,23.0,30.26,ESE,118,7.0,9.0,37,0.00,,,-99.99,,2013-03-13 06:32:00,
2013-03-13 00:42:00,48.0,23.0,30.26,ESE,118,7.0,9.0,37,0.00,,,-99.99,,2013-03-13 06:42:00,
2013-03-13 00:52:00,47.0,23.0,30.26,East,97,8.0,8.0,39,0.00,,,-99.99,,2013-03-13 06:52:00,
2013-03-13 01:02:00,46.0,24.0,30.25,East,90,8.0,8.0,42,0.00,,,-99.99,,2013-03-13 07:02:00,
2013-03-13 01:12:00,46.0,24.0,30.25,East,90,8.0,8.0,42,0.00,,,-99.99,,2013-03-13 07:12:00,
2013-03-13 01:22:00,46.0,25.0,30.25,East,99,9.0,9.0,43,0.00,,,-99.99,,2013-03-13 07:22:00,
2013-03-13 01:32:00,47.0,25.0,30.26,East,98,7.0,9.0,41,0.00,,,-99.99,,2013-03-13 07:32:00,
2013-03-13 01:42:00,47.0,25.0,30.26,East,98,7.0,9.0,41,0.00,,,-99.99,,2013-03-13 07:42:00,
2013-03-13 01:53:00,47.0,25.0,30.27,ENE,75,2.0,8.0,41,0.00,,,-99.99,,2013-03-13 07:53:00,
2013-03-13 02:03:00,45.0,24.0,30.27,NE,36,0.0,2.0,43,0.00,,,-99.99,,2013-03-13 08:03:00,
2013-03-13 02:12:00,45.0,24.0,30.27,NE,36,0.0,2.0,43,0.00,,,-99.99,,2013-03-13 08:12:00,
2013-03-13 02:22:00,46.0,24.0,30.27,ENE,60,3.0,5.0,42,0.00,,,-99.99,,2013-03-13 08:22:00,
2013-03-13 02:32:00,46.0,24.0,30.28,ENE,64,0.0,0.0,42,0.00,,,-99.99,,2013-03-13 08:32:00,
2013-03-13 02:43:00,46.0,24.0,30.28,ENE,64,0.0,0.0,42,0.00,,,-99.99,,2013-03-13 08:43:00,
2013-03-13 02:53:00,44.0,23.0,30.30,ENE,64,0.0,0.0,44,0.00,,,-99.99,,2013-03-13 08:53:00,
2013-03-13 03:02:00,44.0,24.0,30.31,South,191,5.0,6.0,45,0.00,,,-99.99,,2013-03-13 09:02:00,
2013-03-13 03:12:00,44.0,24.0,30.31,South,191,5.0,6.0,45,0.00,,,-99.99,,2013-03-13 09:12:00,
2013-03-13 03:22:00,43.0,24.0,30.31,SSW,198,4.0,5.0,47,0.00,,,-99.99,,2013-03-13 09:22:00,
2013-03-13 03:32:00,43.0,24.0,30.32,SW,230,0.0,2.0,47,0.00,,,-99.99,,2013-03-13 09:32:00,
2013-03-13 03:42:00,43.0,24.0,30.32,SW,230,0.0,2.0,47,0.00,,,-99.99,,2013-03-13 09:42:00,
2013-03-13 03:52:00,42.0,25.0,30.31,ESE,109,5.0,0.0,50,0.00,,,-99.99,,2013-03-13 09:52:00,
2013-03-13 04:02:00,41.0,24.0,30.31,ESE,122,3.0,5.0,51,0.00,,,-99.99,,2013-03-13 10:02:00,
2013-03-13 04:12:00,41.0,24.0,30.31,ESE,122,3.0,5.0,51,0.00,,,-99.99,,2013-03-13 10:12:00,
2013-03-13 04:22:00,41.0,25.0,30.32,ESE,112,0.0,0.0,52,0.00,,,-99.99,,2013-03-13 10:22:00,
2013-03-13 04:32:00,40.0,25.0,30.32,ESE,112,0.0,0.0,54,0.00,,,-99.99,,2013-03-13 10:32:00,
2013-03-13 04:42:00,40.0,25.0,30.32,ESE,112,0.0,0.0,54,0.00,,,-99.99,,2013-03-13 10:42:00,
2013-03-13 04:52:00,40.0,25.0,30.32,ESE,112,0.0,0.0,55,0.00,,,-99.99,,2013-03-13 10:52:00,
2013-03-13 05:02:00,39.0,25.0,30.33,NNE,19,5.0,5.0,57,0.00,,,-99.99,,2013-03-13 11:02:00,
2013-03-13 05:12:00,39.0,25.0,30.33,NNE,19,5.0,5.0,57,0.00,,,-99.99,,2013-03-13 11:12:00,
2013-03-13 05:22:00,40.0,25.0,30.34,ENE,59,2.0,6.0,55,0.00,,,-99.99,,2013-03-13 11:22:00,
2013-03-13 05:32:00,40.0,25.0,30.34,ESE,104,5.0,6.0,55,0.00,,,-99.99,,2013-03-13 11:32:00,
2013-03-13 05:42:00,40.0,25.0,30.34,ESE,104,5.0,6.0,55,0.00,,,-99.99,,2013-03-13 11:42:00,
2013-03-13 05:52:00,40.0,25.0,30.34,ESE,116,4.0,7.0,55,0.00,,,-99.99,,2013-03-13 11:52:00,
2013-03-13 06:02:00,42.0,25.0,30.35,East,95,4.0,5.0,51,0.00,,,-99.99,,2013-03-13 12:02:00,
2013-03-13 06:12:00,42.0,25.0,30.35,East,95,4.0,5.0,51,0.00,,,-99.99,,2013-03-13 12:12:00,
2013-03-13 06:22:00,42.0,25.0,30.35,East,94,5.0,6.0,51,0.00,,,-99.99,,2013-03-13 12:22:00,
2013-03-13 06:32:00,40.0,26.0,30.35,East,85,3.0,4.0,56,0.00,,,-99.99,,2013-03-13 12:32:00,
2013-03-13 06:42:00,40.0,26.0,30.35,East,85,3.0,4.0,56,0.00,,,-99.99,,2013-03-13 12:42:00,
2013-03-13 06:53:00,40.0,25.0,30.35,ENE,59,0.0,0.0,55,0.00,,,-99.99,,2013-03-13 12:53:00,
2013-03-13 07:02:00,40.0,25.0,30.35,ENE,59,0.0,0.0,54,0.00,,,-99.99,,2013-03-13 13:02:00,
2013-03-13 07:11:00,40.0,25.0,30.35,ENE,59,0.0,0.0,54,0.00,,,-99.99,,2013-03-13 13:11:00,
2013-03-13 07:22:00,39.0,25.0,30.36,ENE,59,0.0,0.0,58,0.00,,,-99.99,,2013-03-13 13:22:00,
2013-03-13 07:33:00,39.0,25.0,30.37,ENE,59,0.0,0.0,56,0.00,,,-99.99,,2013-03-13 13:33:00,
2013-03-13 07:42:00,39.0,25.0,30.37,ENE,59,0.0,0.0,56,0.00,,,-99.99,,2013-03-13 13:42:00,
2013-03-13 07:52:00,39.0,26.0,30.38,ENE,59,0.0,0.0,59,0.00,,,-99.99,,2013-03-13 13:52:00,
2013-03-13 08:02:00,38.0,26.0,30.38,ENE,59,0.0,0.0,62,0.00,,,-99.99,,2013-03-13 14:02:00,
2013-03-13 08:12:00,38.0,26.0,30.38,ENE,59,0.0,0.0,62,0.00,,,-99.99,,2013-03-13 14:12:00,
2013-03-13 08:21:00,40.0,26.0,30.38,ENE,59,0.0,0.0,57,0.00,,,-99.99,,2013-03-13 14:21:00,
2013-03-13 08:33:00,42.0,27.0,30.40,East,94,3.0,4.0,55,0.00,,,-99.99,,2013-03-13 14:33:00,
2013-03-13 08:42:00,42.0,27.0,30.40,East,94,3.0,4.0,55,0.00,,,-99.99,,2013-03-13 14:42:00,
2013-03-13 08:52:00,42.0,27.0,30.39,NW,324,0.0,0.0,54,0.00,,,-99.99,,2013-03-13 14:52:00,
2013-03-13 09:03:00,44.0,26.0,30.39,NW,324,0.0,0.0,48,0.00,,,-99.99,,2013-03-13 15:03:00,
2013-03-13 09:12:00,44.0,26.0,30.39,NW,324,0.0,0.0,48,0.00,,,-99.99,,2013-03-13 15:12:00,
2013-03-13 09:22:00,47.0,26.0,30.38,NW,324,0.0,0.0,43,0.00,,,-99.99,,2013-03-13 15:22:00,
2013-03-13 09:32:00,49.0,26.0,30.37,SW,232,2.0,0.0,41,0.00,,,-99.99,,2013-03-13 15:32:00,
2013-03-13 09:42:00,49.0,26.0,30.37,SW,232,2.0,0.0,41,0.00,,,-99.99,,2013-03-13 15:42:00,
2013-03-13 09:52:00,49.0,26.0,30.35,SW,233,0.0,0.0,41,0.00,,,-99.99,,2013-03-13 15:52:00,
2013-03-13 10:02:00,49.0,26.0,30.35,SW,233,0.0,0.0,41,0.00,,,-99.99,,2013-03-13 16:02:00,
2013-03-13 10:12:00,49.0,26.0,30.35,SW,233,0.0,0.0,41,0.00,,,-99.99,,2013-03-13 16:12:00,
2013-03-13 10:22:00,50.0,27.0,30.34,West,260,0.0,3.0,41,0.00,,,-99.99,,2013-03-13 16:22:00,
2013-03-13 10:32:00,50.0,27.0,30.34,West,277,0.0,4.0,41,0.00,,,-99.99,,2013-03-13 16:32:00,
2013-03-13 10:42:00,50.0,27.0,30.34,West,277,0.0,4.0,41,0.00,,,-99.99,,2013-03-13 16:42:00,
2013-03-13 10:52:00,51.0,27.0,30.33,WSW,248,0.0,3.0,39,0.00,,,-99.99,,2013-03-13 16:52:00,
2013-03-13 11:02:00,52.0,25.0,30.32,West,271,3.0,6.0,35,0.00,,,-99.99,,2013-03-13 17:02:00,
2013-03-13 11:12:00,52.0,25.0,30.32,West,271,3.0,6.0,35,0.00,,,-99.99,,2013-03-13 17:12:00,
2013-03-13 11:22:00,53.0,25.0,30.32,WSW,250,6.0,10.0,33,0.00,,,-99.99,,2013-03-13 17:22:00,
2013-03-13 11:32:00,54.0,23.0,30.31,SW,216,7.0,9.0,30,0.00,,,-99.99,,2013-03-13 17:32:00,
2013-03-13 11:42:00,54.0,23.0,30.31,SW,216,7.0,9.0,30,0.00,,,-99.99,,2013-03-13 17:42:00,
2013-03-13 11:53:00,55.0,23.0,30.30,SSW,196,5.0,6.0,29,0.00,,,-99.99,,2013-03-13 17:53:00,
2013-03-13 12:02:00,56.0,24.0,30.29,SSW,208,7.0,10.0,29,0.00,,,-99.99,,2013-03-13 18:02:00,
2013-03-13 12:12:00,56.0,24.0,30.29,SSW,208,7.0,10.0,29,0.00,,,-99.99,,2013-03-13 18:12:00,
2013-03-13 12:22:00,57.0,23.0,30.29,SSW,195,0.0,7.0,27,0.00,,,-99.99,,2013-03-13 18:22:00,
2013-03-13 12:33:00,58.0,24.0,30.27,West,281,4.0,4.0,27,0.00,,,-99.99,,2013-03-13 18:33:00,
2013-03-13 12:42:00,58.0,24.0,30.27,West,281,4.0,4.0,27,0.00,,,-99.99,,2013-03-13 18:42:00,
2013-03-13 12:52:00,58.0,23.0,30.27,South,182,0.0,7.0,26,0.00,,,-99.99,,2013-03-13 18:52:00,
2013-03-13 13:02:00,59.0,23.0,30.26,SSW,202,0.0,2.0,25,0.00,,,-99.99,,2013-03-13 19:02:00,
2013-03-13 13:12:00,59.0,23.0,30.26,SSW,202,0.0,2.0,25,0.00,,,-99.99,,2013-03-13 19:12:00,
2013-03-13 13:22:00,59.0,22.0,30.25,NE,54,0.0,0.0,24,0.00,,,-99.99,,2013-03-13 19:22:00,
2013-03-13 13:32:00,59.0,21.0,30.24,East,97,6.0,10.0,23,0.00,,,-99.99,,2013-03-13 19:32:00,
2013-03-13 13:43:00,59.0,21.0,30.24,East,97,6.0,10.0,23,0.00,,,-99.99,,2013-03-13 19:43:00,
2013-03-13 13:52:00,60.0,23.0,30.23,SE,125,0.0,8.0,24,0.00,,,-99.99,,2013-03-13 19:52:00,
2013-03-13 14:02:00,61.0,21.0,30.22,West,261,1.0,12.0,21,0.00,,,-99.99,,2013-03-13 20:02:00,
2013-03-13 14:12:00,61.0,21.0,30.22,West,261,1.0,12.0,21,0.00,,,-99.99,,2013-03-13 20:12:00,
2013-03-13 14:22:00,62.0,22.0,30.20,West,281,8.0,12.0,21,0.00,,,-99.99,,2013-03-13 20:22:00,
2013-03-13 14:32:00,61.0,22.0,30.19,SW,230,6.0,10.0,22,0.00,,,-99.99,,2013-03-13 20:32:00,
2013-03-13 14:42:00,61.0,22.0,30.19,SW,230,6.0,10.0,22,0.00,,,-99.99,,2013-03-13 20:42:00,
2013-03-13 14:52:00,63.0,21.0,30.18,WSW,246,6.0,7.0,20,0.00,,,-99.99,,2013-03-13 20:52:00,
2013-03-13 15:02:00,62.0,22.0,30.17,WNW,288,3.0,11.0,21,0.00,,,-99.99,,2013-03-13 21:02:00,
2013-03-13 15:12:00,62.0,22.0,30.17,WNW,288,3.0,11.0,21,0.00,,,-99.99,,2013-03-13 21:12:00,
2013-03-13 15:22:00,64.0,21.0,30.17,NNW,330,5.0,10.0,19,0.00,,,-99.99,,2013-03-13 21:22:00,
2013-03-13 15:33:00,63.0,20.0,30.16,NE,39,2.0,9.0,19,0.00,,,-99.99,,2013-03-13 21:33:00,
2013-03-13 15:42:00,63.0,20.0,30.16,NE,39,2.0,9.0,19,0.00,,,-99.99,,2013-03-13 21:42:00,
2013-03-13 15:52:00,64.0,20.0,30.16,South,171,6.0,6.0,18,0.00,,,-99.99,,2013-03-13 21:52:00,
2013-03-13 16:02:00,65.0,20.0,30.16,SE,142,9.0,9.0,18,0.00,,,-99.99,,2013-03-13 22:02:00,
2013-03-13 16:12:00,65.0,20.0,30.16,SE,142,9.0,9.0,18,0.00,,,-99.99,,2013-03-13 22:12:00,
2013-03-13 16:22:00,66.0,20.0,30.16,West,279,6.0,9.0,17,0.00,,,-99.99,,2013-03-13 22:22:00,
2013-03-13 16:32:00,66.0,19.0,30.15,WNW,282,0.0,7.0,16,0.00,,,-99.99,,2013-03-13 22:32:00,
2013-03-13 16:42:00,66.0,19.0,30.15,WNW,282,0.0,7.0,16,0.00,,,-99.99,,2013-03-13 22:42:00,
2013-03-13 16:52:00,66.0,17.0,30.15,WNW,292,5.0,8.0,15,0.00,,,-99.99,,2013-03-13 22:52:00,
2013-03-13 17:02:00,66.0,15.0,30.14,WNW,291,6.0,13.0,14,0.00,,,-99.99,,2013-03-13 23:02:00,
2013-03-13 17:12:00,66.0,15.0,30.14,WNW,291,6.0,13.0,14,0.00,,,-99.99,,2013-03-13 23:12:00,
2013-03-13 17:22:00,67.0,18.0,30.14,North,8,6.0,11.0,15,0.00,,,-99.99,,2013-03-13 23:22:00,
2013-03-13 17:32:00,66.0,15.0,30.14,SW,220,1.0,11.0,14,0.00,,,-99.99,,2013-03-13 23:32:00,
2013-03-13 17:42:00,66.0,15.0,30.14,SW,220,1.0,11.0,14,0.00,,,-99.99,,2013-03-13 23:42:00,
2013-03-13 17:52:00,67.0,18.0,30.13,West,278,2.0,6.0,15,0.00,,,-99.99,,2013-03-13 23:52:00,
2013-03-13 18:02:00,67.0,18.0,30.13,WSW,251,6.0,10.0,15,0.00,,,-99.99,,2013-03-14 00:02:00,
2013-03-13 18:12:00,67.0,18.0,30.13,WSW,251,6.0,10.0,15,0.00,,,-99.99,,2013-03-14 00:12:00,
2013-03-13 18:22:00,67.0,16.0,30.13,NNW,331,5.0,9.0,14,0.00,,,-99.99,,2013-03-14 00:22:00,
2013-03-13 18:32:00,66.0,15.0,30.13,NNW,340,4.0,11.0,14,0.00,,,-99.99,,2013-03-14 00:32:00,
2013-03-13 18:42:00,66.0,15.0,30.13,NNW,340,4.0,11.0,14,0.00,,,-99.99,,2013-03-14 00:42:00,
2013-03-13 18:52:00,66.0,14.0,30.13,NW,319,9.0,12.0,13,0.00,,,-99.99,,2013-03-14 00:52:00,
2013-03-13 19:02:00,66.0,14.0,30.14,WNW,300,10.0,12.0,13,0.00,,,-99.99,,2013-03-14 01:02:00,
2013-03-13 19:12:00,66.0,14.0,30.14,WNW,300,10.0,12.0,13,0.00,,,-99.99,,2013-03-14 01:12:00,
2013-03-13 19:22:00,65.0,15.0,30.15,North,9,7.0,13.0,14,0.00,,,-99.99,,2013-03-14 01:22:00,
2013-03-13 19:32:00,64.0,14.0,30.16,North,9,11.0,15.0,14,0.00,,,-99.99,,2013-03-14 01:32:00,
2013-03-13 19:42:00,64.0,14.0,30.16,North,9,11.0,15.0,14,0.00,,,-99.99,,2013-03-14 01:42:00,
2013-03-13 19:53:00,63.0,15.0,30.17,NNW,341,8.0,9.0,15,0.00,,,-99.99,,2013-03-14 01:53:00,
2013-03-13 20:02:00,63.0,13.0,30.17,North,1,9.0,10.0,14,0.00,,,-99.99,,2013-03-14 02:02:00,
2013-03-13 20:12:00,63.0,13.0,30.17,North,1,9.0,10.0,14,0.00,,,-99.99,,2013-03-14 02:12:00,
2013-03-13 20:22:00,62.0,14.0,30.18,North,358,6.0,8.0,15,0.00,,,-99.99,,2013-03-14 02:22:00,
2013-03-13 20:32:00,61.0,16.0,30.19,NNE,28,5.0,8.0,17,0.00,,,-99.99,,2013-03-14 02:32:00,
2013-03-13 20:42:00,61.0,16.0,30.19,NNE,28,5.0,8.0,17,0.00,,,-99.99,,2013-03-14 02:42:00,
2013-03-13 20:52:00,61.0,16.0,30.19,NNE,28,5.0,8.0,17,0.00,,,-99.99,,2013-03-14 02:52:00,
2013-03-13 21:01:00,61.0,14.0,30.20,North,358,6.0,11.0,16,0.00,,,-99.99,,2013-03-14 03:01:00,
2013-03-13 21:12:00,61.0,14.0,30.20,North,358,6.0,11.0,16,0.00,,,-99.99,,2013-03-14 03:12:00,
2013-03-13 21:23:00,60.0,14.0,30.20,NNE,14,6.0,13.0,16,0.00,,,-99.99,,2013-03-14 03:23:00,
2013-03-13 21:32:00,60.0,15.0,30.21,NNE,29,3.0,7.0,17,0.00,,,-99.99,,2013-03-14 03:32:00,
2013-03-13 21:42:00,60.0,15.0,30.21,NNE,29,3.0,7.0,17,0.00,,,-99.99,,2013-03-14 03:42:00,
2013-03-13 21:52:00,59.0,16.0,30.23,NE,36,2.0,5.0,18,0.00,,,-99.99,,2013-03-14 03:52:00,
2013-03-13 22:12:00,58.0,15.0,30.23,NNE,23,6.0,6.0,18,0.00,,,-99.99,,2013-03-14 04:12:00,
2013-03-13 22:22:00,58.0,15.0,30.24,NNE,12,9.0,9.0,18,0.00,,,-99.99,,2013-03-14 04:22:00,
2013-03-13 22:32:00,57.0,15.0,30.24,NNE,19,5.0,6.0,19,0.00,,,-99.99,,2013-03-14 04:32:00,
2013-03-13 22:42:00,57.0,15.0,30.24,NNE,19,5.0,6.0,19,0.00,,,-99.99,,2013-03-14 04:42:00,
2013-03-13 22:52:00,56.0,16.0,30.25,NNE,22,0.0,3.0,20,0.00,,,-99.99,,2013-03-14 04:52:00,
2013-03-13 23:02:00,55.0,15.0,30.25,NNE,22,0.0,0.0,20,0.00,,,-99.99,,2013-03-14 05:02:00,
2013-03-13 23:12:00,55.0,15.0,30.25,NNE,22,0.0,0.0,20,0.00,,,-99.99,,2013-03-14 05:12:00,
2013-03-13 23:22:00,54.0,16.0,30.25,NNE,25,0.0,3.0,22,0.00,,,-99.99,,2013-03-14 05:22:00,
2013-03-13 23:33:00,55.0,15.0,30.26,NE,35,2.0,5.0,20,0.00,,,-99.99,,2013-03-14 05:33:00,
2013-03-13 23:42:00,55.0,15.0,30.26,NE,35,2.0,5.0,20,0.00,,,-99.99,,2013-03-14 05:42:00,
2013-03-13 23:52:00,55.0,15.0,30.27,North,9,0.0,3.0,20,0.00,,,-99.99,,2013-03-14 05:52:00,